Cannon Ball, North Dakota
Current Conditions -  °F | °C
As of 2:35 AM on Sunday 26 Oct 2014 (Local Time) from K7L2 Reporting Station
Clear Clear  
Wind Chill:   Ceiling: Unl
Heat Index:   Visibility: 10mi
Dew Point:   Wind: 17mph
Humidity: 61%   Direction: 140°SE
Pressure: 29.81"   Gusts: 24mph
Location:  46.4°N, 100.6°W
Report Text: K7L2 260835Z AUTO 14015G21KT 10SM CLR 07/00 A2981 RMK AO2 PWINO PNO
Loading
Personal Weather Stations






























Interactive Weather Map
Tropical Storm Tracking
New forecast layout! Learn more

10-Day Weather Forecast

Advertisements
Track Severe Weather on mobile